Pagrindinis puslapis
METAR-TAF:

METAR-TAF

Oro uostai :

Armenija, Kolumbija

platuma: 04-30N, ilguma: 075-43W, Aukštis: 1204 m

Dabartinis oras

Ataskaita buvo paskelbta 23 minutes, ne 13:00 UTC
Ramus vėjas
Temperatūra 21°C
Drėgmė 88%
Slėgis 1020 hPa
Matomumas: 7000 m
Išsisklaidę debesys ne aukštis 1500 ft
Išsisklaidę debesys ne aukštis 9000 ft
Rūkas kaimynystėje

METAR: SKAR 281300Z 00000KT 7000 VCFG SCT015 SCT090 21/19 A3012

Laikas: 08:23 (13:23 UTC)


TAF: trūkstamas

Orai ataskaitas ir orų prognozės (METAR, TAF).

turimą stotys yra geltonos ir raudonos taškus žemėlapyje.

Perkelti pele per norėdami pamatyti stoties vardą.

Tada spustelėkite, norėdami matyti oro stebėjimo ir prognozės.

Norėdami pakeisti žemėlapį: spustelėkite ant žalios mygtukų su juodo kryžiaus žemyn,; žalią mygtuką su brūkšneliu, jei norite nutolinti; arba žalių rodyklių gretimoms žemėlapius.


METAR-TAF: